sensor_id;sensor_type;location;lat;lon;timestamp;P1;durP1;ratioP1;P2;durP2;ratioP2
25503;SDS011;13410;52.114;5.718;2023-07-30T00:00:14;9.43;;;2.80;;
25503;SDS011;13410;52.114;5.718;2023-07-30T00:02:40;11.43;;;2.90;;
25503;SDS011;13410;52.114;5.718;2023-07-30T00:05:06;12.90;;;3.10;;
25503;SDS011;13410;52.114;5.718;2023-07-30T00:07:31;9.15;;;3.05;;
25503;SDS011;13410;52.114;5.718;2023-07-30T00:09:57;8.40;;;2.63;;
25503;SDS011;13410;52.114;5.718;2023-07-30T00:12:22;11.85;;;3.63;;
25503;SDS011;13410;52.114;5.718;2023-07-30T00:14:48;11.18;;;3.05;;
25503;SDS011;13410;52.114;5.718;2023-07-30T00:17:13;10.90;;;2.55;;
25503;SDS011;13410;52.114;5.718;2023-07-30T00:19:39;11.05;;;3.20;;
25503;SDS011;13410;52.114;5.718;2023-07-30T00:22:05;7.95;;;2.95;;
25503;SDS011;13410;52.114;5.718;2023-07-30T00:24:30;13.75;;;3.50;;
25503;SDS011;13410;52.114;5.718;2023-07-30T00:26:56;11.73;;;3.55;;
25503;SDS011;13410;52.114;5.718;2023-07-30T00:29:24;10.30;;;3.42;;
25503;SDS011;13410;52.114;5.718;2023-07-30T00:31:49;10.70;;;3.53;;
25503;SDS011;13410;52.114;5.718;2023-07-30T00:34:15;8.73;;;3.30;;
25503;SDS011;13410;52.114;5.718;2023-07-30T00:36:41;12.25;;;3.25;;
25503;SDS011;13410;52.114;5.718;2023-07-30T00:39:06;8.93;;;3.30;;
25503;SDS011;13410;52.114;5.718;2023-07-30T00:41:32;8.65;;;3.13;;
25503;SDS011;13410;52.114;5.718;2023-07-30T00:43:57;8.52;;;3.25;;
25503;SDS011;13410;52.114;5.718;2023-07-30T00:46:23;8.88;;;3.05;;
25503;SDS011;13410;52.114;5.718;2023-07-30T00:48:49;8.68;;;3.40;;
25503;SDS011;13410;52.114;5.718;2023-07-30T00:51:15;10.60;;;3.80;;
25503;SDS011;13410;52.114;5.718;2023-07-30T00:53:42;8.18;;;3.13;;
25503;SDS011;13410;52.114;5.718;2023-07-30T00:56:07;9.43;;;3.38;;
25503;SDS011;13410;52.114;5.718;2023-07-30T00:58:36;10.05;;;3.38;;
25503;SDS011;13410;52.114;5.718;2023-07-30T01:01:04;11.30;;;3.13;;
25503;SDS011;13410;52.114;5.718;2023-07-30T01:03:30;10.48;;;3.30;;
25503;SDS011;13410;52.114;5.718;2023-07-30T01:05:56;10.27;;;3.30;;
25503;SDS011;13410;52.114;5.718;2023-07-30T01:08:22;10.90;;;3.28;;
25503;SDS011;13410;52.114;5.718;2023-07-30T01:10:47;7.90;;;3.15;;
25503;SDS011;13410;52.114;5.718;2023-07-30T01:13:14;8.68;;;3.38;;
25503;SDS011;13410;52.114;5.718;2023-07-30T01:15:41;10.15;;;2.95;;
25503;SDS011;13410;52.114;5.718;2023-07-30T01:18:08;8.57;;;2.80;;
25503;SDS011;13410;52.114;5.718;2023-07-30T01:20:34;10.77;;;3.30;;
25503;SDS011;13410;52.114;5.718;2023-07-30T01:23:00;7.63;;;3.22;;
25503;SDS011;13410;52.114;5.718;2023-07-30T01:25:27;13.15;;;3.70;;
25503;SDS011;13410;52.114;5.718;2023-07-30T01:27:56;7.53;;;2.97;;
25503;SDS011;13410;52.114;5.718;2023-07-30T01:30:26;7.20;;;3.03;;
25503;SDS011;13410;52.114;5.718;2023-07-30T01:32:54;8.50;;;3.35;;
25503;SDS011;13410;52.114;5.718;2023-07-30T01:35:21;9.48;;;2.83;;
25503;SDS011;13410;52.114;5.718;2023-07-30T01:37:50;11.52;;;3.17;;
25503;SDS011;13410;52.114;5.718;2023-07-30T01:40:17;12.90;;;3.13;;
25503;SDS011;13410;52.114;5.718;2023-07-30T01:42:43;15.63;;;3.35;;
25503;SDS011;13410;52.114;5.718;2023-07-30T01:45:09;10.52;;;3.10;;
25503;SDS011;13410;52.114;5.718;2023-07-30T01:47:34;8.98;;;2.75;;
25503;SDS011;13410;52.114;5.718;2023-07-30T01:50:00;11.80;;;2.95;;
25503;SDS011;13410;52.114;5.718;2023-07-30T01:52:25;9.15;;;3.30;;
25503;SDS011;13410;52.114;5.718;2023-07-30T01:54:51;11.57;;;2.88;;
25503;SDS011;13410;52.114;5.718;2023-07-30T01:57:17;12.07;;;3.17;;
25503;SDS011;13410;52.114;5.718;2023-07-30T01:59:42;11.68;;;2.85;;
25503;SDS011;13410;52.114;5.718;2023-07-30T02:02:08;9.50;;;3.20;;
25503;SDS011;13410;52.114;5.718;2023-07-30T02:04:34;11.48;;;3.25;;
25503;SDS011;13410;52.114;5.718;2023-07-30T02:06:59;8.85;;;3.00;;
25503;SDS011;13410;52.114;5.718;2023-07-30T02:09:25;8.45;;;2.90;;
25503;SDS011;13410;52.114;5.718;2023-07-30T02:11:50;9.43;;;2.90;;
25503;SDS011;13410;52.114;5.718;2023-07-30T02:14:17;14.60;;;3.30;;
25503;SDS011;13410;52.114;5.718;2023-07-30T02:16:43;12.88;;;3.10;;
25503;SDS011;13410;52.114;5.718;2023-07-30T02:19:09;10.95;;;3.20;;
25503;SDS011;13410;52.114;5.718;2023-07-30T02:21:34;9.40;;;3.35;;
25503;SDS011;13410;52.114;5.718;2023-07-30T02:24:02;9.60;;;3.05;;
25503;SDS011;13410;52.114;5.718;2023-07-30T02:26:27;13.38;;;3.25;;
25503;SDS011;13410;52.114;5.718;2023-07-30T02:28:53;11.50;;;3.28;;
25503;SDS011;13410;52.114;5.718;2023-07-30T02:31:18;10.70;;;3.45;;
25503;SDS011;13410;52.114;5.718;2023-07-30T02:33:44;11.43;;;3.15;;
25503;SDS011;13410;52.114;5.718;2023-07-30T02:36:09;14.65;;;3.33;;
25503;SDS011;13410;52.114;5.718;2023-07-30T02:38:35;15.13;;;3.13;;
25503;SDS011;13410;52.114;5.718;2023-07-30T02:41:00;14.02;;;3.28;;
25503;SDS011;13410;52.114;5.718;2023-07-30T02:43:26;13.05;;;3.05;;
25503;SDS011;13410;52.114;5.718;2023-07-30T02:45:51;12.07;;;3.80;;
25503;SDS011;13410;52.114;5.718;2023-07-30T02:48:17;13.35;;;3.70;;
25503;SDS011;13410;52.114;5.718;2023-07-30T02:50:43;12.20;;;3.80;;
25503;SDS011;13410;52.114;5.718;2023-07-30T02:53:08;14.50;;;3.80;;
25503;SDS011;13410;52.114;5.718;2023-07-30T02:55:34;14.18;;;3.95;;
25503;SDS011;13410;52.114;5.718;2023-07-30T02:57:59;10.57;;;3.35;;
25503;SDS011;13410;52.114;5.718;2023-07-30T03:00:25;13.02;;;4.25;;
25503;SDS011;13410;52.114;5.718;2023-07-30T03:02:50;13.43;;;3.45;;
25503;SDS011;13410;52.114;5.718;2023-07-30T03:05:16;12.40;;;3.50;;
25503;SDS011;13410;52.114;5.718;2023-07-30T03:07:41;10.85;;;3.80;;
25503;SDS011;13410;52.114;5.718;2023-07-30T03:10:07;14.35;;;4.03;;
25503;SDS011;13410;52.114;5.718;2023-07-30T03:12:32;14.95;;;3.80;;
25503;SDS011;13410;52.114;5.718;2023-07-30T03:14:58;16.63;;;4.13;;
25503;SDS011;13410;52.114;5.718;2023-07-30T03:17:24;14.50;;;4.22;;
25503;SDS011;13410;52.114;5.718;2023-07-30T03:19:50;15.70;;;4.35;;
25503;SDS011;13410;52.114;5.718;2023-07-30T03:22:15;14.23;;;3.58;;
25503;SDS011;13410;52.114;5.718;2023-07-30T03:24:41;13.65;;;4.32;;
25503;SDS011;13410;52.114;5.718;2023-07-30T03:27:07;14.57;;;4.40;;
25503;SDS011;13410;52.114;5.718;2023-07-30T03:29:32;16.05;;;4.75;;
25503;SDS011;13410;52.114;5.718;2023-07-30T03:31:58;19.23;;;4.70;;
25503;SDS011;13410;52.114;5.718;2023-07-30T03:34:23;14.82;;;4.05;;
25503;SDS011;13410;52.114;5.718;2023-07-30T03:36:49;16.55;;;4.35;;
25503;SDS011;13410;52.114;5.718;2023-07-30T03:39:14;15.63;;;4.80;;
25503;SDS011;13410;52.114;5.718;2023-07-30T03:41:40;16.63;;;4.28;;
25503;SDS011;13410;52.114;5.718;2023-07-30T03:44:05;14.35;;;4.60;;
25503;SDS011;13410;52.114;5.718;2023-07-30T03:46:32;16.27;;;4.30;;
25503;SDS011;13410;52.114;5.718;2023-07-30T03:48:57;24.25;;;5.18;;
25503;SDS011;13410;52.114;5.718;2023-07-30T03:51:23;18.40;;;4.55;;
25503;SDS011;13410;52.114;5.718;2023-07-30T03:53:49;18.70;;;5.07;;
25503;SDS011;13410;52.114;5.718;2023-07-30T03:56:15;23.17;;;5.50;;
25503;SDS011;13410;52.114;5.718;2023-07-30T03:58:40;20.67;;;5.93;;
25503;SDS011;13410;52.114;5.718;2023-07-30T04:01:06;19.50;;;6.07;;
25503;SDS011;13410;52.114;5.718;2023-07-30T04:03:33;17.27;;;5.28;;
25503;SDS011;13410;52.114;5.718;2023-07-30T04:05:59;17.88;;;5.40;;
25503;SDS011;13410;52.114;5.718;2023-07-30T04:08:25;18.10;;;6.00;;
25503;SDS011;13410;52.114;5.718;2023-07-30T04:10:50;13.80;;;5.95;;
25503;SDS011;13410;52.114;5.718;2023-07-30T04:13:16;19.05;;;5.60;;
25503;SDS011;13410;52.114;5.718;2023-07-30T04:15:41;19.92;;;6.15;;
25503;SDS011;13410;52.114;5.718;2023-07-30T04:18:07;24.38;;;6.63;;
25503;SDS011;13410;52.114;5.718;2023-07-30T04:20:33;24.27;;;7.40;;
25503;SDS011;13410;52.114;5.718;2023-07-30T04:22:58;21.20;;;7.85;;
25503;SDS011;13410;52.114;5.718;2023-07-30T04:25:24;26.02;;;7.47;;
25503;SDS011;13410;52.114;5.718;2023-07-30T04:27:49;23.35;;;7.07;;
25503;SDS011;13410;52.114;5.718;2023-07-30T04:30:15;19.23;;;7.32;;
25503;SDS011;13410;52.114;5.718;2023-07-30T04:32:40;19.70;;;7.10;;
25503;SDS011;13410;52.114;5.718;2023-07-30T04:35:06;23.73;;;7.35;;
25503;SDS011;13410;52.114;5.718;2023-07-30T04:37:32;27.00;;;7.32;;
25503;SDS011;13410;52.114;5.718;2023-07-30T04:39:57;24.83;;;7.70;;
25503;SDS011;13410;52.114;5.718;2023-07-30T04:42:23;23.98;;;7.72;;
25503;SDS011;13410;52.114;5.718;2023-07-30T04:44:48;23.48;;;7.28;;
25503;SDS011;13410;52.114;5.718;2023-07-30T04:47:14;21.92;;;7.78;;
25503;SDS011;13410;52.114;5.718;2023-07-30T04:49:39;24.25;;;7.68;;
25503;SDS011;13410;52.114;5.718;2023-07-30T04:52:06;25.48;;;7.80;;
25503;SDS011;13410;52.114;5.718;2023-07-30T04:54:35;23.63;;;7.57;;
25503;SDS011;13410;52.114;5.718;2023-07-30T04:57:03;26.75;;;8.18;;
25503;SDS011;13410;52.114;5.718;2023-07-30T04:59:30;22.23;;;8.02;;
25503;SDS011;13410;52.114;5.718;2023-07-30T05:01:56;23.30;;;7.95;;
25503;SDS011;13410;52.114;5.718;2023-07-30T05:04:21;25.95;;;8.07;;
25503;SDS011;13410;52.114;5.718;2023-07-30T05:06:47;27.05;;;8.30;;
25503;SDS011;13410;52.114;5.718;2023-07-30T05:09:12;29.38;;;8.02;;
25503;SDS011;13410;52.114;5.718;2023-07-30T05:11:38;26.00;;;9.38;;
25503;SDS011;13410;52.114;5.718;2023-07-30T05:14:04;30.73;;;9.07;;
25503;SDS011;13410;52.114;5.718;2023-07-30T05:16:30;25.50;;;8.68;;
25503;SDS011;13410;52.114;5.718;2023-07-30T05:18:55;25.23;;;8.15;;
25503;SDS011;13410;52.114;5.718;2023-07-30T05:21:21;28.40;;;9.20;;
25503;SDS011;13410;52.114;5.718;2023-07-30T05:23:46;21.90;;;8.02;;
25503;SDS011;13410;52.114;5.718;2023-07-30T05:26:12;28.65;;;9.13;;
25503;SDS011;13410;52.114;5.718;2023-07-30T05:28:37;19.67;;;7.63;;
25503;SDS011;13410;52.114;5.718;2023-07-30T05:31:03;25.88;;;8.70;;
25503;SDS011;13410;52.114;5.718;2023-07-30T05:33:28;24.35;;;8.23;;
25503;SDS011;13410;52.114;5.718;2023-07-30T05:35:54;24.92;;;7.95;;
25503;SDS011;13410;52.114;5.718;2023-07-30T05:38:19;23.08;;;7.95;;
25503;SDS011;13410;52.114;5.718;2023-07-30T05:40:45;23.75;;;8.23;;
25503;SDS011;13410;52.114;5.718;2023-07-30T05:43:11;25.92;;;8.90;;
25503;SDS011;13410;52.114;5.718;2023-07-30T05:45:36;22.75;;;8.30;;
25503;SDS011;13410;52.114;5.718;2023-07-30T05:48:02;19.98;;;8.25;;
25503;SDS011;13410;52.114;5.718;2023-07-30T05:50:27;24.38;;;8.23;;
25503;SDS011;13410;52.114;5.718;2023-07-30T05:52:53;19.73;;;7.45;;
25503;SDS011;13410;52.114;5.718;2023-07-30T05:55:18;22.35;;;7.90;;
25503;SDS011;13410;52.114;5.718;2023-07-30T05:57:44;23.67;;;8.07;;
25503;SDS011;13410;52.114;5.718;2023-07-30T06:00:10;25.30;;;7.97;;
25503;SDS011;13410;52.114;5.718;2023-07-30T06:02:36;24.45;;;8.68;;
25503;SDS011;13410;52.114;5.718;2023-07-30T06:05:02;22.58;;;7.63;;
25503;SDS011;13410;52.114;5.718;2023-07-30T06:07:27;22.45;;;7.63;;
25503;SDS011;13410;52.114;5.718;2023-07-30T06:09:53;21.00;;;6.97;;
25503;SDS011;13410;52.114;5.718;2023-07-30T06:12:18;25.65;;;7.60;;
25503;SDS011;13410;52.114;5.718;2023-07-30T06:14:44;20.77;;;7.30;;
25503;SDS011;13410;52.114;5.718;2023-07-30T06:17:09;20.65;;;7.97;;
25503;SDS011;13410;52.114;5.718;2023-07-30T06:19:35;21.13;;;7.60;;
25503;SDS011;13410;52.114;5.718;2023-07-30T06:22:01;21.45;;;7.57;;
25503;SDS011;13410;52.114;5.718;2023-07-30T06:24:26;21.65;;;7.53;;
25503;SDS011;13410;52.114;5.718;2023-07-30T06:26:52;23.25;;;7.90;;
25503;SDS011;13410;52.114;5.718;2023-07-30T06:29:17;22.70;;;8.18;;
25503;SDS011;13410;52.114;5.718;2023-07-30T06:31:45;23.17;;;8.30;;
25503;SDS011;13410;52.114;5.718;2023-07-30T06:34:11;25.27;;;8.40;;
25503;SDS011;13410;52.114;5.718;2023-07-30T06:36:37;22.15;;;8.30;;
25503;SDS011;13410;52.114;5.718;2023-07-30T06:39:05;22.80;;;8.40;;
25503;SDS011;13410;52.114;5.718;2023-07-30T06:41:32;20.67;;;7.88;;
25503;SDS011;13410;52.114;5.718;2023-07-30T06:43:57;23.67;;;7.88;;
25503;SDS011;13410;52.114;5.718;2023-07-30T06:46:25;20.67;;;7.38;;
25503;SDS011;13410;52.114;5.718;2023-07-30T06:48:53;21.60;;;7.43;;
25503;SDS011;13410;52.114;5.718;2023-07-30T06:51:19;24.02;;;7.53;;
25503;SDS011;13410;52.114;5.718;2023-07-30T06:53:45;21.65;;;6.80;;
25503;SDS011;13410;52.114;5.718;2023-07-30T06:56:11;16.67;;;6.47;;
25503;SDS011;13410;52.114;5.718;2023-07-30T06:58:36;22.63;;;6.63;;
25503;SDS011;13410;52.114;5.718;2023-07-30T07:01:02;22.25;;;6.57;;
25503;SDS011;13410;52.114;5.718;2023-07-30T07:03:27;20.52;;;6.10;;
25503;SDS011;13410;52.114;5.718;2023-07-30T07:05:53;17.58;;;6.10;;
25503;SDS011;13410;52.114;5.718;2023-07-30T07:08:20;19.02;;;6.25;;
25503;SDS011;13410;52.114;5.718;2023-07-30T07:10:45;16.95;;;5.70;;
25503;SDS011;13410;52.114;5.718;2023-07-30T07:13:11;16.92;;;5.70;;
25503;SDS011;13410;52.114;5.718;2023-07-30T07:15:40;15.88;;;5.88;;
25503;SDS011;13410;52.114;5.718;2023-07-30T07:18:06;18.58;;;5.70;;
25503;SDS011;13410;52.114;5.718;2023-07-30T07:20:32;17.90;;;6.22;;
25503;SDS011;13410;52.114;5.718;2023-07-30T07:22:57;18.42;;;6.70;;
25503;SDS011;13410;52.114;5.718;2023-07-30T07:25:24;16.35;;;6.05;;
25503;SDS011;13410;52.114;5.718;2023-07-30T07:27:53;20.17;;;6.47;;
25503;SDS011;13410;52.114;5.718;2023-07-30T07:30:18;20.63;;;6.40;;
25503;SDS011;13410;52.114;5.718;2023-07-30T07:32:44;16.17;;;5.88;;
25503;SDS011;13410;52.114;5.718;2023-07-30T07:35:09;20.83;;;6.57;;
25503;SDS011;13410;52.114;5.718;2023-07-30T07:37:35;20.17;;;6.32;;
25503;SDS011;13410;52.114;5.718;2023-07-30T07:40:01;15.82;;;6.00;;
25503;SDS011;13410;52.114;5.718;2023-07-30T07:42:28;17.30;;;6.18;;
25503;SDS011;13410;52.114;5.718;2023-07-30T07:44:55;19.70;;;6.47;;
25503;SDS011;13410;52.114;5.718;2023-07-30T07:47:21;16.27;;;5.63;;
25503;SDS011;13410;52.114;5.718;2023-07-30T07:49:46;19.50;;;5.97;;
25503;SDS011;13410;52.114;5.718;2023-07-30T07:52:13;18.75;;;5.60;;
25503;SDS011;13410;52.114;5.718;2023-07-30T07:54:39;14.35;;;5.50;;
25503;SDS011;13410;52.114;5.718;2023-07-30T07:57:06;15.93;;;5.13;;
25503;SDS011;13410;52.114;5.718;2023-07-30T07:59:32;17.92;;;5.13;;
25503;SDS011;13410;52.114;5.718;2023-07-30T08:01:58;15.52;;;4.47;;
25503;SDS011;13410;52.114;5.718;2023-07-30T08:04:24;12.48;;;3.80;;
25503;SDS011;13410;52.114;5.718;2023-07-30T08:06:49;12.02;;;3.50;;
25503;SDS011;13410;52.114;5.718;2023-07-30T08:09:15;13.80;;;3.80;;
25503;SDS011;13410;52.114;5.718;2023-07-30T08:11:41;15.00;;;3.90;;
25503;SDS011;13410;52.114;5.718;2023-07-30T08:14:06;15.05;;;4.00;;
25503;SDS011;13410;52.114;5.718;2023-07-30T08:16:32;13.13;;;4.28;;
25503;SDS011;13410;52.114;5.718;2023-07-30T08:18:57;18.35;;;4.45;;
25503;SDS011;13410;52.114;5.718;2023-07-30T08:21:23;12.82;;;3.47;;
25503;SDS011;13410;52.114;5.718;2023-07-30T08:23:48;13.07;;;3.53;;
25503;SDS011;13410;52.114;5.718;2023-07-30T08:26:14;14.77;;;3.90;;
25503;SDS011;13410;52.114;5.718;2023-07-30T08:28:39;11.48;;;3.38;;
25503;SDS011;13410;52.114;5.718;2023-07-30T08:31:05;12.48;;;3.72;;
25503;SDS011;13410;52.114;5.718;2023-07-30T08:33:31;14.15;;;3.70;;
25503;SDS011;13410;52.114;5.718;2023-07-30T08:35:57;12.00;;;4.32;;
25503;SDS011;13410;52.114;5.718;2023-07-30T08:38:23;14.60;;;4.40;;
25503;SDS011;13410;52.114;5.718;2023-07-30T08:40:49;12.25;;;3.47;;
25503;SDS011;13410;52.114;5.718;2023-07-30T08:43:15;12.82;;;3.88;;
25503;SDS011;13410;52.114;5.718;2023-07-30T08:45:41;15.52;;;3.97;;
25503;SDS011;13410;52.114;5.718;2023-07-30T08:48:08;10.98;;;4.18;;
25503;SDS011;13410;52.114;5.718;2023-07-30T08:50:33;10.25;;;3.47;;
25503;SDS011;13410;52.114;5.718;2023-07-30T08:53:00;11.98;;;3.63;;
25503;SDS011;13410;52.114;5.718;2023-07-30T08:55:27;14.77;;;3.50;;
25503;SDS011;13410;52.114;5.718;2023-07-30T08:57:55;12.55;;;3.72;;
25503;SDS011;13410;52.114;5.718;2023-07-30T09:00:22;14.98;;;3.50;;
25503;SDS011;13410;52.114;5.718;2023-07-30T09:02:54;12.93;;;3.42;;
25503;SDS011;13410;52.114;5.718;2023-07-30T09:05:23;12.80;;;3.90;;
25503;SDS011;13410;52.114;5.718;2023-07-30T09:07:49;12.38;;;3.50;;
25503;SDS011;13410;52.114;5.718;2023-07-30T09:10:15;11.65;;;3.13;;
25503;SDS011;13410;52.114;5.718;2023-07-30T09:12:41;13.85;;;3.92;;
25503;SDS011;13410;52.114;5.718;2023-07-30T09:15:06;13.70;;;3.40;;
25503;SDS011;13410;52.114;5.718;2023-07-30T09:17:33;13.65;;;3.50;;
25503;SDS011;13410;52.114;5.718;2023-07-30T09:20:00;12.20;;;3.20;;
25503;SDS011;13410;52.114;5.718;2023-07-30T09:22:26;8.30;;;3.10;;
25503;SDS011;13410;52.114;5.718;2023-07-30T09:24:53;11.52;;;3.40;;
25503;SDS011;13410;52.114;5.718;2023-07-30T09:27:20;14.18;;;3.15;;
25503;SDS011;13410;52.114;5.718;2023-07-30T09:29:53;15.25;;;3.10;;
25503;SDS011;13410;52.114;5.718;2023-07-30T09:32:26;11.13;;;3.08;;
25503;SDS011;13410;52.114;5.718;2023-07-30T09:34:53;13.02;;;3.13;;
25503;SDS011;13410;52.114;5.718;2023-07-30T09:37:19;11.40;;;2.80;;
25503;SDS011;13410;52.114;5.718;2023-07-30T09:39:47;12.00;;;2.50;;
25503;SDS011;13410;52.114;5.718;2023-07-30T09:42:13;12.00;;;2.78;;
25503;SDS011;13410;52.114;5.718;2023-07-30T09:44:39;10.00;;;2.67;;
25503;SDS011;13410;52.114;5.718;2023-07-30T09:47:08;11.13;;;2.45;;
25503;SDS011;13410;52.114;5.718;2023-07-30T09:49:37;10.20;;;2.55;;
25503;SDS011;13410;52.114;5.718;2023-07-30T09:52:04;9.80;;;2.75;;
25503;SDS011;13410;52.114;5.718;2023-07-30T09:54:30;10.18;;;2.38;;
25503;SDS011;13410;52.114;5.718;2023-07-30T09:56:58;11.57;;;2.70;;
25503;SDS011;13410;52.114;5.718;2023-07-30T09:59:24;9.65;;;2.55;;
25503;SDS011;13410;52.114;5.718;2023-07-30T10:01:50;11.32;;;2.78;;
25503;SDS011;13410;52.114;5.718;2023-07-30T10:04:21;10.95;;;2.40;;
25503;SDS011;13410;52.114;5.718;2023-07-30T10:06:58;9.18;;;2.35;;
25503;SDS011;13410;52.114;5.718;2023-07-30T10:09:29;7.30;;;2.30;;
25503;SDS011;13410;52.114;5.718;2023-07-30T10:11:57;11.23;;;2.25;;
25503;SDS011;13410;52.114;5.718;2023-07-30T10:14:24;11.10;;;2.30;;
25503;SDS011;13410;52.114;5.718;2023-07-30T10:16:51;8.70;;;2.00;;
25503;SDS011;13410;52.114;5.718;2023-07-30T10:19:21;6.55;;;1.83;;
25503;SDS011;13410;52.114;5.718;2023-07-30T10:21:48;5.80;;;1.70;;
25503;SDS011;13410;52.114;5.718;2023-07-30T10:24:13;7.53;;;1.80;;
25503;SDS011;13410;52.114;5.718;2023-07-30T10:26:39;7.90;;;2.00;;
25503;SDS011;13410;52.114;5.718;2023-07-30T10:29:15;8.38;;;2.00;;
25503;SDS011;13410;52.114;5.718;2023-07-30T10:31:43;7.43;;;2.00;;
25503;SDS011;13410;52.114;5.718;2023-07-30T10:34:13;7.95;;;1.83;;
25503;SDS011;13410;52.114;5.718;2023-07-30T10:36:43;11.43;;;1.73;;
25503;SDS011;13410;52.114;5.718;2023-07-30T10:41:51;7.70;;;1.95;;
25503;SDS011;13410;52.114;5.718;2023-07-30T10:44:25;8.68;;;2.15;;
25503;SDS011;13410;52.114;5.718;2023-07-30T10:46:52;8.20;;;2.00;;
25503;SDS011;13410;52.114;5.718;2023-07-30T10:49:19;11.32;;;2.25;;
25503;SDS011;13410;52.114;5.718;2023-07-30T10:51:45;5.80;;;1.73;;
25503;SDS011;13410;52.114;5.718;2023-07-30T10:54:10;6.88;;;1.85;;
25503;SDS011;13410;52.114;5.718;2023-07-30T10:56:36;7.05;;;1.55;;
25503;SDS011;13410;52.114;5.718;2023-07-30T10:59:03;5.63;;;1.60;;
25503;SDS011;13410;52.114;5.718;2023-07-30T11:01:36;6.23;;;1.23;;
25503;SDS011;13410;52.114;5.718;2023-07-30T11:04:07;5.78;;;1.33;;
25503;SDS011;13410;52.114;5.718;2023-07-30T11:06:36;5.28;;;1.60;;
25503;SDS011;13410;52.114;5.718;2023-07-30T11:09:02;4.97;;;1.30;;
25503;SDS011;13410;52.114;5.718;2023-07-30T11:11:28;6.32;;;1.63;;
25503;SDS011;13410;52.114;5.718;2023-07-30T11:13:53;6.40;;;1.20;;
25503;SDS011;13410;52.114;5.718;2023-07-30T11:16:19;6.57;;;1.48;;
25503;SDS011;13410;52.114;5.718;2023-07-30T11:18:45;6.18;;;1.58;;
25503;SDS011;13410;52.114;5.718;2023-07-30T11:21:13;11.15;;;1.65;;
25503;SDS011;13410;52.114;5.718;2023-07-30T11:23:41;6.45;;;1.50;;
25503;SDS011;13410;52.114;5.718;2023-07-30T11:26:12;5.10;;;1.33;;
25503;SDS011;13410;52.114;5.718;2023-07-30T11:28:39;8.10;;;1.33;;
25503;SDS011;13410;52.114;5.718;2023-07-30T11:31:16;4.47;;;1.30;;
25503;SDS011;13410;52.114;5.718;2023-07-30T11:33:51;6.07;;;1.40;;
25503;SDS011;13410;52.114;5.718;2023-07-30T11:36:26;6.78;;;1.50;;
25503;SDS011;13410;52.114;5.718;2023-07-30T11:38:52;6.25;;;1.50;;
25503;SDS011;13410;52.114;5.718;2023-07-30T11:41:18;6.05;;;1.48;;
25503;SDS011;13410;52.114;5.718;2023-07-30T11:43:49;5.93;;;1.30;;
25503;SDS011;13410;52.114;5.718;2023-07-30T11:46:17;4.63;;;1.20;;
25503;SDS011;13410;52.114;5.718;2023-07-30T11:48:46;7.63;;;1.50;;
25503;SDS011;13410;52.114;5.718;2023-07-30T11:51:24;7.10;;;1.40;;
25503;SDS011;13410;52.114;5.718;2023-07-30T11:53:52;3.90;;;1.10;;
25503;SDS011;13410;52.114;5.718;2023-07-30T11:56:22;5.37;;;1.30;;
25503;SDS011;13410;52.114;5.718;2023-07-30T11:59:00;6.25;;;1.30;;
25503;SDS011;13410;52.114;5.718;2023-07-30T12:01:33;4.07;;;1.17;;
25503;SDS011;13410;52.114;5.718;2023-07-30T12:04:00;4.03;;;1.20;;
25503;SDS011;13410;52.114;5.718;2023-07-30T12:09:14;4.32;;;1.20;;
25503;SDS011;13410;52.114;5.718;2023-07-30T12:14:24;6.43;;;1.10;;
25503;SDS011;13410;52.114;5.718;2023-07-30T12:16:54;9.68;;;1.70;;
25503;SDS011;13410;52.114;5.718;2023-07-30T12:19:23;4.50;;;1.30;;
25503;SDS011;13410;52.114;5.718;2023-07-30T12:21:49;3.10;;;1.10;;
25503;SDS011;13410;52.114;5.718;2023-07-30T12:24:15;4.30;;;1.10;;
25503;SDS011;13410;52.114;5.718;2023-07-30T12:26:40;5.63;;;1.33;;
25503;SDS011;13410;52.114;5.718;2023-07-30T12:29:06;4.85;;;1.40;;
25503;SDS011;13410;52.114;5.718;2023-07-30T12:31:32;2.22;;;0.95;;
25503;SDS011;13410;52.114;5.718;2023-07-30T12:33:57;7.35;;;1.30;;
25503;SDS011;13410;52.114;5.718;2023-07-30T12:36:23;4.97;;;1.13;;
25503;SDS011;13410;52.114;5.718;2023-07-30T12:38:48;4.15;;;1.23;;
25503;SDS011;13410;52.114;5.718;2023-07-30T12:41:17;6.20;;;1.10;;
25503;SDS011;13410;52.114;5.718;2023-07-30T12:43:44;5.22;;;0.90;;
25503;SDS011;13410;52.114;5.718;2023-07-30T12:46:09;4.72;;;1.05;;
25503;SDS011;13410;52.114;5.718;2023-07-30T12:48:35;4.28;;;1.08;;
25503;SDS011;13410;52.114;5.718;2023-07-30T12:51:01;4.85;;;1.08;;
25503;SDS011;13410;52.114;5.718;2023-07-30T12:53:27;4.20;;;0.90;;
25503;SDS011;13410;52.114;5.718;2023-07-30T12:55:53;6.40;;;0.95;;
25503;SDS011;13410;52.114;5.718;2023-07-30T12:58:18;8.80;;;1.20;;
25503;SDS011;13410;52.114;5.718;2023-07-30T13:00:44;3.10;;;1.02;;
25503;SDS011;13410;52.114;5.718;2023-07-30T13:03:12;4.93;;;0.95;;
25503;SDS011;13410;52.114;5.718;2023-07-30T13:05:38;7.78;;;1.17;;
25503;SDS011;13410;52.114;5.718;2023-07-30T13:08:04;6.78;;;1.02;;
25503;SDS011;13410;52.114;5.718;2023-07-30T13:10:29;5.65;;;1.20;;
25503;SDS011;13410;52.114;5.718;2023-07-30T13:12:55;3.83;;;1.05;;
25503;SDS011;13410;52.114;5.718;2023-07-30T13:15:21;4.95;;;1.20;;
25503;SDS011;13410;52.114;5.718;2023-07-30T13:17:46;6.65;;;0.93;;
25503;SDS011;13410;52.114;5.718;2023-07-30T13:20:12;4.32;;;1.08;;
25503;SDS011;13410;52.114;5.718;2023-07-30T13:22:37;4.97;;;0.88;;
25503;SDS011;13410;52.114;5.718;2023-07-30T13:25:03;3.50;;;0.90;;
25503;SDS011;13410;52.114;5.718;2023-07-30T13:27:29;4.32;;;1.00;;
25503;SDS011;13410;52.114;5.718;2023-07-30T13:29:55;2.75;;;1.00;;
25503;SDS011;13410;52.114;5.718;2023-07-30T13:32:20;6.43;;;1.20;;
25503;SDS011;13410;52.114;5.718;2023-07-30T13:34:49;2.88;;;0.80;;
25503;SDS011;13410;52.114;5.718;2023-07-30T13:37:14;3.03;;;0.57;;
25503;SDS011;13410;52.114;5.718;2023-07-30T13:39:40;2.75;;;0.68;;
25503;SDS011;13410;52.114;5.718;2023-07-30T13:42:06;3.28;;;0.80;;
25503;SDS011;13410;52.114;5.718;2023-07-30T13:44:31;5.13;;;1.20;;
25503;SDS011;13410;52.114;5.718;2023-07-30T13:46:57;4.50;;;0.95;;
25503;SDS011;13410;52.114;5.718;2023-07-30T13:49:23;3.83;;;0.80;;
25503;SDS011;13410;52.114;5.718;2023-07-30T13:51:54;4.88;;;0.80;;
25503;SDS011;13410;52.114;5.718;2023-07-30T13:54:19;4.13;;;0.80;;
25503;SDS011;13410;52.114;5.718;2023-07-30T13:56:45;4.18;;;1.05;;
25503;SDS011;13410;52.114;5.718;2023-07-30T13:59:10;4.47;;;0.80;;
25503;SDS011;13410;52.114;5.718;2023-07-30T14:01:36;4.30;;;0.90;;
25503;SDS011;13410;52.114;5.718;2023-07-30T14:04:01;4.03;;;0.95;;
25503;SDS011;13410;52.114;5.718;2023-07-30T14:06:27;4.68;;;0.80;;
25503;SDS011;13410;52.114;5.718;2023-07-30T14:08:53;3.03;;;0.68;;
25503;SDS011;13410;52.114;5.718;2023-07-30T14:11:19;4.60;;;0.90;;
25503;SDS011;13410;52.114;5.718;2023-07-30T14:13:48;3.20;;;0.70;;
25503;SDS011;13410;52.114;5.718;2023-07-30T14:16:13;4.85;;;0.85;;
25503;SDS011;13410;52.114;5.718;2023-07-30T14:18:39;3.00;;;0.63;;
25503;SDS011;13410;52.114;5.718;2023-07-30T14:21:06;5.50;;;0.80;;
25503;SDS011;13410;52.114;5.718;2023-07-30T14:23:32;3.25;;;0.90;;
25503;SDS011;13410;52.114;5.718;2023-07-30T14:25:57;6.05;;;1.00;;
25503;SDS011;13410;52.114;5.718;2023-07-30T14:28:23;1.92;;;0.60;;
25503;SDS011;13410;52.114;5.718;2023-07-30T14:30:49;5.68;;;1.10;;
25503;SDS011;13410;52.114;5.718;2023-07-30T14:33:14;4.65;;;0.80;;
25503;SDS011;13410;52.114;5.718;2023-07-30T14:35:40;2.70;;;0.82;;
25503;SDS011;13410;52.114;5.718;2023-07-30T14:38:06;4.10;;;1.00;;
25503;SDS011;13410;52.114;5.718;2023-07-30T14:40:32;3.75;;;0.82;;
25503;SDS011;13410;52.114;5.718;2023-07-30T14:42:58;2.97;;;0.73;;